Time;durP1;ratioP1;P1;durP2;ratioP2;P2;SDS_P1;SDS_P2;PMS_P1;PMS_P2;Temp;Humidity;BMP_temperature;BMP_pressure;BME280_temperature;BME280_humidity;BME280_pressure;Samples;Min_cycle;Max_cycle;Signal;HPM_P1;HPM_P2
2023/07/19 00:02:02;;;;;;;6.97;2.50;;;14.50;99.90;;;;;;4932269;29;20171;-95
2023/07/19 00:04:28;;;;;;;9.50;2.63;;;14.50;99.90;;;;;;4931573;29;20090;-95
2023/07/19 00:06:54;;;;;;;5.95;2.47;;;14.50;99.90;;;;;;4933000;29;20027;-95
2023/07/19 00:09:20;;;;;;;7.10;2.92;;;14.50;99.90;;;;;;4930213;29;20027;-95
2023/07/19 00:11:49;;;;;;;5.38;2.28;;;14.50;99.90;;;;;;4939971;29;20400;-95
2023/07/19 00:14:15;;;;;;;6.55;2.28;;;14.50;99.90;;;;;;4942324;29;20114;-93
2023/07/19 00:16:41;;;;;;;6.97;2.08;;;14.50;99.90;;;;;;4934891;29;20504;-94
2023/07/19 00:19:07;;;;;;;5.40;2.58;;;14.50;99.90;;;;;;4938922;29;20489;-93
2023/07/19 00:21:32;;;;;;;6.22;2.20;;;14.50;99.90;;;;;;4928343;29;20549;-96
2023/07/19 00:23:58;;;;;;;4.82;2.28;;;14.50;99.90;;;;;;4940717;29;20047;-93
2023/07/19 00:26:24;;;;;;;3.72;1.85;;;14.50;99.90;;;;;;4933129;29;20039;-94
2023/07/19 00:28:49;;;;;;;3.55;2.30;;;14.40;99.90;;;;;;4939874;29;20456;-95
2023/07/19 00:31:15;;;;;;;5.68;2.30;;;14.50;99.90;;;;;;4927172;29;20401;-95
2023/07/19 00:33:40;;;;;;;8.18;3.10;;;14.40;99.90;;;;;;4931298;29;20591;-93
2023/07/19 00:36:06;;;;;;;9.77;2.83;;;14.40;99.90;;;;;;4927137;29;20036;-95
2023/07/19 00:38:32;;;;;;;8.45;2.83;;;14.40;99.90;;;;;;4956478;28;20031;-91
2023/07/19 00:40:57;;;;;;;14.18;2.67;;;14.40;99.90;;;;;;4946337;29;20067;-91
2023/07/19 00:43:23;;;;;;;12.55;2.63;;;14.30;99.90;;;;;;4943598;29;20038;-94
2023/07/19 00:45:54;;;;;;;6.95;2.40;;;14.30;99.90;;;;;;4925363;29;20106;-93
2023/07/19 00:48:20;;;;;;;;;;;14.30;99.90;;;;;;4939439;29;20385;-94
2023/07/19 00:50:48;;;;;;;8.13;2.13;;;14.30;99.90;;;;;;4939757;29;19907;-94
2023/07/19 00:53:14;;;;;;;5.88;2.30;;;14.30;99.90;;;;;;4922251;29;20099;-93
2023/07/19 00:55:40;;;;;;;8.20;1.92;;;14.30;99.90;;;;;;4940180;29;20503;-94
2023/07/19 00:58:07;;;;;;;7.28;3.03;;;14.30;99.90;;;;;;4938726;29;20110;-92
2023/07/19 01:00:32;;;;;;;3.38;2.30;;;14.30;99.90;;;;;;4923187;29;20036;-96
2023/07/19 01:02:59;;;;;;;6.60;2.35;;;14.30;99.90;;;;;;4924352;29;20027;-93
2023/07/19 01:05:26;;;;;;;6.45;2.53;;;14.20;99.90;;;;;;4941026;29;20043;-95
2023/07/19 01:07:53;;;;;;;9.18;2.13;;;14.20;99.90;;;;;;4923881;29;20020;-93
2023/07/19 01:10:19;;;;;;;6.20;2.70;;;14.10;99.90;;;;;;4923907;29;20031;-94
2023/07/19 01:13:11;;;;;;;10.15;2.55;;;14.10;99.90;;;;;;4922648;29;20020;-93
2023/07/19 01:15:38;;;;;;;6.18;2.40;;;14.10;99.90;;;;;;4921990;29;20028;-93
2023/07/19 01:18:04;;;;;;;6.70;2.78;;;14.10;99.90;;;;;;4922129;29;20072;-94
2023/07/19 01:20:31;;;;;;;9.82;2.67;;;14.10;99.90;;;;;;4921906;29;20048;-92
2023/07/19 01:22:57;;;;;;;5.95;2.72;;;14.10;99.90;;;;;;4938692;29;20102;-93
2023/07/19 01:25:23;;;;;;;6.00;2.53;;;14.10;99.90;;;;;;4923659;29;20031;-93
2023/07/19 01:27:49;;;;;;;5.35;2.42;;;14.10;99.90;;;;;;4922318;29;20027;-96
2023/07/19 01:30:15;;;;;;;5.43;2.40;;;14.10;99.90;;;;;;4939566;29;20107;-95
2023/07/19 01:32:41;;;;;;;8.05;2.72;;;14.00;99.90;;;;;;4938639;29;20035;-95
2023/07/19 01:35:07;;;;;;;5.35;2.70;;;14.00;99.90;;;;;;4922629;29;20091;-95
2023/07/19 01:37:33;;;;;;;7.50;3.55;;;14.10;99.90;;;;;;4924140;29;20052;-96
2023/07/19 01:40:00;;;;;;;6.93;3.25;;;14.10;99.90;;;;;;4946007;29;20039;-95
2023/07/19 01:42:26;;;;;;;7.85;3.38;;;14.10;99.90;;;;;;4929377;29;20023;-94
2023/07/19 01:44:53;;;;;;;12.05;3.17;;;14.10;99.90;;;;;;4926201;29;20027;-95
2023/07/19 01:47:18;;;;;;;8.93;3.30;;;14.10;99.90;;;;;;4921316;29;20091;-94
2023/07/19 01:49:44;;;;;;;7.35;2.78;;;14.10;99.90;;;;;;4921686;29;20118;-95
2023/07/19 01:52:10;;;;;;;5.03;3.15;;;14.10;99.90;;;;;;4921057;29;20028;-94
2023/07/19 01:54:36;;;;;;;9.40;3.85;;;14.10;99.90;;;;;;4922788;29;20381;-96
2023/07/19 01:57:01;;;;;;;5.43;3.47;;;14.00;99.90;;;;;;4945418;29;20043;-94
2023/07/19 01:59:27;;;;;;;8.75;3.40;;;14.00;99.90;;;;;;4928949;29;20032;-95
2023/07/19 02:01:53;;;;;;;10.38;3.58;;;14.00;99.90;;;;;;4929652;29;20099;-94
2023/07/19 02:04:26;;;;;;;7.88;3.15;;;14.00;99.90;;;;;;4940516;29;20023;-94
2023/07/19 02:06:53;;;;;;;6.38;3.13;;;13.90;99.90;;;;;;4944097;29;20038;-94
2023/07/19 02:09:18;;;;;;;12.27;3.30;;;13.90;99.90;;;;;;4945050;28;20019;-95
2023/07/19 02:11:44;;;;;;;7.00;3.17;;;13.90;99.90;;;;;;4960853;28;20043;-95
2023/07/19 02:14:10;;;;;;;8.23;3.53;;;13.90;99.90;;;;;;4942642;29;20028;-94
2023/07/19 02:16:35;;;;;;;8.57;2.97;;;13.90;99.90;;;;;;4939165;29;20027;-95
2023/07/19 02:19:06;;;;;;;8.57;3.17;;;13.90;99.90;;;;;;4935872;29;20071;-95
2023/07/19 02:21:32;;;;;;;;;;;13.90;99.90;;;;;;4936099;29;20020;-95
2023/07/19 02:23:58;;;;;;;6.03;3.08;;;13.90;99.90;;;;;;4928574;29;19926;-94
2023/07/19 02:26:24;;;;;;;3.17;2.88;;;13.90;99.90;;;;;;4924382;29;20032;-94
2023/07/19 02:28:50;;;;;;;5.22;2.97;;;13.90;99.90;;;;;;4924961;29;20035;-94
2023/07/19 02:31:16;;;;;;;7.60;3.47;;;14.00;99.90;;;;;;4925064;29;20030;-96
2023/07/19 02:33:42;;;;;;;6.63;2.90;;;14.00;99.90;;;;;;4940530;29;20037;-94
2023/07/19 02:36:11;;;;;;;3.55;2.25;;;14.00;99.90;;;;;;4921644;29;20026;-94
2023/07/19 02:38:36;;;;;;;5.18;2.33;;;14.00;99.90;;;;;;4921387;29;20116;-94
2023/07/19 02:41:02;;;;;;;6.63;2.63;;;14.00;99.90;;;;;;4937305;29;20136;-94
2023/07/19 02:43:28;;;;;;;5.68;2.42;;;14.00;99.90;;;;;;4920429;29;20028;-93
2023/07/19 02:45:54;;;;;;;6.25;2.30;;;14.00;99.90;;;;;;4920167;29;20035;-93
2023/07/19 02:48:21;;;;;;;7.60;3.00;;;14.00;99.90;;;;;;4936043;29;20111;-94
2023/07/19 02:50:48;;;;;;;7.03;2.50;;;14.00;99.90;;;;;;4919973;29;20457;-95
2023/07/19 02:53:15;;;;;;;4.45;2.35;;;14.00;99.90;;;;;;4920655;29;20027;-92
2023/07/19 02:55:43;;;;;;;6.60;2.53;;;14.00;99.90;;;;;;4937352;29;20030;-94
2023/07/19 02:58:09;;;;;;;7.15;2.90;;;14.00;99.90;;;;;;4920014;29;20111;-95
2023/07/19 03:00:42;;;;;;;5.43;2.90;;;14.00;99.90;;;;;;4920045;29;20134;-95
2023/07/19 03:03:10;;;;;;;7.35;3.22;;;14.00;99.90;;;;;;4936755;29;20023;-94
2023/07/19 03:05:42;;;;;;;7.28;3.30;;;14.00;99.90;;;;;;4920090;29;20031;-93
2023/07/19 03:08:08;;;;;;;10.73;3.90;;;14.00;99.90;;;;;;4919547;29;20068;-94
2023/07/19 03:10:34;;;;;;;5.68;3.33;;;14.00;99.90;;;;;;4919815;29;20036;-92
2023/07/19 03:13:00;;;;;;;9.35;3.55;;;13.90;99.90;;;;;;4936452;29;20039;-93
2023/07/19 03:15:27;;;;;;;6.72;3.75;;;13.90;99.90;;;;;;4919505;29;20389;-95
2023/07/19 03:17:53;;;;;;;9.00;3.47;;;13.90;99.90;;;;;;4919713;29;20030;-94
2023/07/19 03:20:19;;;;;;;9.75;4.35;;;13.90;99.90;;;;;;4919794;29;20039;-94
2023/07/19 03:22:44;;;;;;;12.02;3.92;;;13.90;99.90;;;;;;4920011;29;20036;-94
2023/07/19 03:25:10;;;;;;;9.85;4.13;;;13.90;99.90;;;;;;4936929;29;20490;-94
2023/07/19 03:27:36;;;;;;;8.57;4.25;;;13.90;99.90;;;;;;4922643;29;20027;-94
2023/07/19 03:30:02;;;;;;;6.85;4.47;;;13.90;99.90;;;;;;4922817;29;20027;-94
2023/07/19 03:32:29;;;;;;;7.78;3.88;;;13.90;99.90;;;;;;4919614;29;20031;-95
2023/07/19 03:34:55;;;;;;;6.07;4.00;;;13.90;99.90;;;;;;4920778;29;20039;-95
2023/07/19 03:37:21;;;;;;;7.57;3.47;;;13.90;99.90;;;;;;4927911;29;20036;-91
2023/07/19 03:39:46;;;;;;;6.53;3.70;;;13.90;99.90;;;;;;4921110;29;20043;-95
2023/07/19 03:42:12;;;;;;;10.15;3.55;;;13.90;99.90;;;;;;4945596;29;20055;-92
2023/07/19 03:44:38;;;;;;;10.27;4.18;;;13.90;99.90;;;;;;4942203;28;20039;-91
2023/07/19 03:47:03;;;;;;;9.25;4.32;;;13.80;99.90;;;;;;4930472;29;20118;-95
2023/07/19 03:49:29;;;;;;;7.50;5.00;;;13.80;99.90;;;;;;4920331;29;20024;-94
2023/07/19 03:51:55;;;;;;;7.43;4.55;;;13.80;99.90;;;;;;4920001;29;20123;-95
2023/07/19 03:54:20;;;;;;;7.03;4.57;;;13.80;99.90;;;;;;4920455;29;20035;-94
2023/07/19 03:56:46;;;;;;;7.00;4.32;;;13.80;99.90;;;;;;4919500;29;20493;-95
2023/07/19 03:59:12;;;;;;;9.13;4.57;;;13.80;99.90;;;;;;4919597;29;20047;-95
2023/07/19 04:01:38;;;;;;;8.38;4.68;;;13.80;99.90;;;;;;4919567;29;20477;-93
2023/07/19 04:04:03;;;;;;;9.90;4.28;;;13.80;99.90;;;;;;4919529;29;20039;-95
2023/07/19 04:06:30;;;;;;;8.85;4.32;;;13.80;99.90;;;;;;4936628;29;20111;-94
2023/07/19 04:08:55;;;;;;;10.32;4.55;;;13.90;99.90;;;;;;4938087;29;20037;-94
2023/07/19 04:11:21;;;;;;;7.72;4.30;;;13.90;99.90;;;;;;4928315;29;20092;-93
2023/07/19 04:13:47;;;;;;;7.85;4.10;;;13.90;99.90;;;;;;4919981;29;20501;-93
2023/07/19 04:16:13;;;;;;;8.50;4.57;;;13.90;99.90;;;;;;4918981;29;20024;-93
2023/07/19 04:18:38;;;;;;;6.97;3.83;;;13.90;99.90;;;;;;4924040;29;20031;-93
2023/07/19 04:21:04;;;;;;;12.95;4.50;;;13.90;99.90;;;;;;4925248;29;20035;-93
2023/07/19 04:23:30;;;;;;;8.45;4.03;;;13.90;99.90;;;;;;4919657;29;20078;-94
2023/07/19 04:25:56;;;;;;;4.97;3.63;;;13.90;99.90;;;;;;4919236;29;20481;-91
2023/07/19 04:28:21;;;;;;;8.40;3.80;;;13.90;99.90;;;;;;4935780;29;20482;-94
2023/07/19 04:30:47;;;;;;;9.32;4.20;;;14.00;99.90;;;;;;4935816;29;20024;-95
2023/07/19 04:33:14;;;;;;;11.48;4.28;;;13.90;99.90;;;;;;4919081;29;20487;-95
2023/07/19 04:35:40;;;;;;;8.43;2.97;;;13.90;99.90;;;;;;4918946;29;20024;-93
2023/07/19 04:38:06;;;;;;;6.80;3.53;;;14.00;99.90;;;;;;4922082;29;20037;-93
2023/07/19 04:40:32;;;;;;;9.00;3.83;;;14.00;99.90;;;;;;4937617;29;20130;-94
2023/07/19 04:42:59;;;;;;;8.43;4.13;;;14.00;99.90;;;;;;4954981;29;20114;-94
2023/07/19 04:45:25;;;;;;;6.93;3.90;;;14.00;99.90;;;;;;4937388;29;20086;-95
2023/07/19 04:47:50;;;;;;;8.68;3.90;;;14.00;99.90;;;;;;4937798;29;20027;-94
2023/07/19 04:50:16;;;;;;;7.43;3.90;;;14.00;99.90;;;;;;4938598;29;20381;-95
2023/07/19 04:52:45;;;;;;;10.80;3.83;;;14.00;99.90;;;;;;4955233;28;20473;-96
2023/07/19 04:55:11;;;;;;;11.57;4.00;;;14.00;99.90;;;;;;4951127;29;20027;-95
2023/07/19 04:57:37;;;;;;;7.72;4.03;;;14.00;99.90;;;;;;4940144;29;20019;-96
2023/07/19 05:00:05;;;;;;;9.30;4.65;;;14.00;99.90;;;;;;4952043;29;20267;-95
2023/07/19 05:02:31;;;;;;;12.30;5.22;;;14.00;99.90;;;;;;4950571;29;20045;-95
2023/07/19 05:04:56;;;;;;;7.85;3.92;;;14.00;99.90;;;;;;4949449;29;20038;-95
2023/07/19 05:07:22;;;;;;;9.88;5.13;;;14.00;99.90;;;;;;4948406;29;20023;-95
2023/07/19 05:09:48;;;;;;;9.02;4.97;;;14.00;99.90;;;;;;4945937;29;20041;-96
2023/07/19 05:12:14;;;;;;;13.65;6.28;;;14.00;99.90;;;;;;4960848;29;20063;-96
2023/07/19 05:14:39;;;;;;;7.60;5.65;;;14.00;99.90;;;;;;4952877;29;20046;-94
2023/07/19 05:17:05;;;;;;;6.10;5.00;;;14.00;99.90;;;;;;4956608;29;20022;-94
2023/07/19 05:19:31;;;;;;;15.73;6.45;;;14.00;99.90;;;;;;4958832;28;20055;-95
2023/07/19 05:21:57;;;;;;;10.35;6.15;;;14.10;99.90;;;;;;4977636;28;20026;-95
2023/07/19 05:24:26;;;;;;;7.57;4.88;;;14.10;99.90;;;;;;4955601;29;20051;-96
2023/07/19 05:26:51;;;;;;;9.15;5.55;;;14.00;99.90;;;;;;4953108;29;20031;-95
2023/07/19 05:29:17;;;;;;;12.55;5.45;;;14.00;99.90;;;;;;4951765;29;20042;-95
2023/07/19 05:31:43;;;;;;;9.02;5.80;;;14.10;99.90;;;;;;4949989;29;20023;-96
2023/07/19 05:34:08;;;;;;;10.30;6.10;;;14.10;99.90;;;;;;4948496;29;20035;-96
2023/07/19 05:36:34;;;;;;;10.30;5.90;;;14.10;99.90;;;;;;4947512;29;20122;-96
2023/07/19 05:39:01;;;;;;;10.73;6.28;;;14.10;99.90;;;;;;4947294;29;20050;-96
2023/07/19 05:41:30;;;;;;;10.02;6.75;;;14.10;99.90;;;;;;4964422;29;20023;-94
2023/07/19 05:43:55;;;;;;;8.77;6.97;;;14.10;99.90;;;;;;4939154;29;20046;-95
2023/07/19 05:46:21;;;;;;;11.50;7.03;;;14.10;99.90;;;;;;4933721;29;20029;-95
2023/07/19 05:48:47;;;;;;;11.27;6.78;;;14.10;99.90;;;;;;4924491;29;20089;-95
2023/07/19 05:51:13;;;;;;;9.88;7.13;;;14.20;99.90;;;;;;4906441;29;20478;-93
2023/07/19 05:53:38;;;;;;;13.48;6.63;;;14.10;99.90;;;;;;4919556;29;20032;-95
2023/07/19 05:56:07;;;;;;;9.20;6.50;;;14.20;99.90;;;;;;4922847;29;20032;-95
2023/07/19 05:58:33;;;;;;;9.93;6.35;;;14.20;99.90;;;;;;4919060;29;20028;-95
2023/07/19 06:01:04;;;;;;;18.25;7.72;;;14.20;99.90;;;;;;4917111;29;20032;-93
2023/07/19 06:03:30;;;;;;;12.20;6.93;;;14.20;99.90;;;;;;4918967;29;20036;-96
2023/07/19 06:05:56;;;;;;;9.90;5.65;;;14.20;99.90;;;;;;4903813;29;20036;-95
2023/07/19 06:08:21;;;;;;;9.77;5.88;;;14.20;99.90;;;;;;4904302;29;20028;-93
2023/07/19 06:10:47;;;;;;;10.60;6.85;;;14.20;99.90;;;;;;4905092;29;20391;-95
2023/07/19 06:13:14;;;;;;;12.93;6.35;;;14.30;99.90;;;;;;4906671;29;20533;-95
2023/07/19 06:15:39;;;;;;;12.65;6.32;;;14.30;99.90;;;;;;4907000;29;20036;-92
2023/07/19 06:18:05;;;;;;;15.23;7.28;;;14.30;99.90;;;;;;4909467;29;20024;-94
2023/07/19 06:20:31;;;;;;;15.95;7.35;;;14.30;99.90;;;;;;4906386;29;20135;-96
2023/07/19 06:22:56;;;;;;;9.57;6.00;;;14.30;99.90;;;;;;4906020;29;20185;-96
2023/07/19 06:25:22;;;;;;;14.02;6.93;;;14.30;99.90;;;;;;4909924;29;20028;-96
2023/07/19 06:27:53;;;;;;;9.73;6.38;;;14.30;99.90;;;;;;4907639;29;20035;-95
2023/07/19 06:30:19;;;;;;;13.52;7.18;;;14.40;99.90;;;;;;4905655;29;20099;-95
2023/07/19 06:32:45;;;;;;;11.95;6.85;;;14.30;99.90;;;;;;4905566;29;20028;-94
2023/07/19 06:35:10;;;;;;;10.23;7.25;;;14.40;99.90;;;;;;4921675;29;20055;-94
2023/07/19 06:37:36;;;;;;;12.95;7.13;;;14.40;99.90;;;;;;4905205;29;20509;-94
2023/07/19 06:40:03;;;;;;;11.60;7.47;;;14.50;99.90;;;;;;4902470;29;20036;-94
2023/07/19 06:42:32;;;;;;;11.95;7.32;;;14.50;99.90;;;;;;4901975;29;20466;-95
2023/07/19 06:44:58;;;;;;;8.80;6.15;;;14.50;99.90;;;;;;4901433;29;20032;-94
2023/07/19 06:47:24;;;;;;;4.43;1.88;;;14.60;99.90;;;;;;4901111;29;20052;-95
2023/07/19 06:49:49;;;;;;;1.00;0.95;;;14.60;99.90;;;;;;4901230;29;20138;-94
2023/07/19 06:52:15;;;;;;;0.50;0.50;;;14.50;99.90;;;;;;4917444;29;20036;-95
2023/07/19 06:54:41;;;;;;;0.50;0.40;;;14.50;99.90;;;;;;4902057;29;20048;-94
2023/07/19 06:57:09;;;;;;;0.40;0.40;;;14.50;99.90;;;;;;4905142;29;20088;-93
2023/07/19 06:59:35;;;;;;;1.35;0.90;;;14.50;99.90;;;;;;4904648;29;20036;-94
2023/07/19 07:02:01;;;;;;;1.42;0.40;;;14.40;99.90;;;;;;4902152;29;20154;-95
2023/07/19 07:04:27;;;;;;;4.28;0.90;;;14.40;99.90;;;;;;4901791;29;20025;-95
2023/07/19 07:06:53;;;;;;;0.70;0.70;;;14.40;99.90;;;;;;4901942;29;20063;-94
2023/07/19 07:09:18;;;;;;;0.65;0.65;;;14.40;99.90;;;;;;4917552;29;20053;-95
2023/07/19 07:11:44;;;;;;;0.50;0.50;;;14.40;99.90;;;;;;4901656;29;20074;-94
2023/07/19 07:14:10;;;;;;;0.50;0.50;;;14.40;99.90;;;;;;4903488;29;20028;-95
2023/07/19 07:16:36;;;;;;;0.50;0.50;;;14.40;99.90;;;;;;4928442;29;20100;-96
2023/07/19 07:19:02;;;;;;;0.55;0.55;;;14.30;99.90;;;;;;4918578;29;20024;-96
2023/07/19 07:21:28;;;;;;;0.43;0.43;;;14.30;99.90;;;;;;4923886;29;20023;-95
2023/07/19 07:23:54;;;;;;;0.38;0.38;;;14.30;99.90;;;;;;4943666;29;20124;-96
2023/07/19 07:26:20;;;;;;;1.15;0.88;;;14.30;99.90;;;;;;4931620;28;20008;-96
2023/07/19 07:28:45;;;;;;;0.98;0.80;;;14.30;99.90;;;;;;4930068;29;20032;-94
2023/07/19 07:31:11;;;;;;;1.10;0.77;;;14.30;99.90;;;;;;4936619;29;20047;-95
2023/07/19 07:33:38;;;;;;;1.23;1.13;;;14.30;99.90;;;;;;4924819;29;20032;-95
2023/07/19 07:36:04;;;;;;;1.63;1.20;;;14.30;99.90;;;;;;4924122;29;20488;-94
2023/07/19 07:38:29;;;;;;;1.17;1.08;;;14.30;99.90;;;;;;4923414;29;20035;-95
2023/07/19 07:41:02;;;;;;;1.73;1.10;;;14.30;99.90;;;;;;4951979;29;20035;-89
2023/07/19 07:43:32;;;;;;;1.20;0.80;;;14.30;99.90;;;;;;4942556;29;20036;-93
2023/07/19 07:45:58;;;;;;;2.88;1.80;;;14.30;99.90;;;;;;4927865;29;20046;-94
2023/07/19 07:48:24;;;;;;;1.95;1.40;;;14.30;99.90;;;;;;4928730;29;20028;-96
2023/07/19 07:50:52;;;;;;;1.50;1.00;;;14.30;99.90;;;;;;4922430;29;20020;-93
2023/07/19 07:53:19;;;;;;;1.85;0.93;;;14.30;99.90;;;;;;4919971;29;20035;-92
2023/07/19 07:55:45;;;;;;;1.02;0.90;;;14.30;99.90;;;;;;4947058;29;20027;-93
2023/07/19 07:58:11;;;;;;;2.53;0.90;;;14.30;99.90;;;;;;4929556;29;20028;-92
2023/07/19 08:00:37;;;;;;;1.10;0.70;;;14.40;99.90;;;;;;4933458;29;20036;-92
2023/07/19 08:03:03;;;;;;;1.00;0.90;;;14.30;99.90;;;;;;4937949;29;20079;-95
2023/07/19 08:05:29;;;;;;;1.90;1.00;;;14.40;99.90;;;;;;4934740;29;20032;-92
2023/07/19 08:07:54;;;;;;;1.40;0.80;;;14.50;99.90;;;;;;4953029;29;20043;-92
2023/07/19 08:10:20;;;;;;;1.15;0.95;;;14.60;99.90;;;;;;4932469;29;20129;-92
2023/07/19 08:12:47;;;;;;;0.70;0.70;;;14.60;99.90;;;;;;4963676;29;20023;-95
2023/07/19 08:15:13;;;;;;;1.40;1.30;;;14.70;99.90;;;;;;4924337;29;20031;-95
2023/07/19 08:17:39;;;;;;;1.45;0.80;;;14.70;99.90;;;;;;4930712;29;20019;-91
2023/07/19 08:20:09;;;;;;;1.00;0.80;;;14.70;99.90;;;;;;4933608;29;20087;-96
2023/07/19 08:22:36;;;;;;;;;;;14.70;99.90;;;;;;4929672;29;20055;-95
2023/07/19 08:25:02;;;;;;;2.45;1.60;;;14.80;99.90;;;;;;4933591;29;19941;-89
2023/07/19 08:27:27;;;;;;;2.33;1.95;;;14.80;99.90;;;;;;4950030;28;20016;-90
2023/07/19 08:29:53;;;;;;;2.95;1.60;;;14.90;99.90;;;;;;4935984;29;20114;-93
2023/07/19 08:32:19;;;;;;;2.25;1.50;;;14.90;99.90;;;;;;4931622;29;20035;-91
2023/07/19 08:34:45;;;;;;;1.55;1.40;;;15.00;99.90;;;;;;4932844;29;20030;-92
2023/07/19 08:37:11;;;;;;;2.45;1.50;;;15.00;99.90;;;;;;4933543;28;20228;-92
2023/07/19 08:39:37;;;;;;;2.08;1.25;;;15.10;99.90;;;;;;4949591;29;20064;-89
2023/07/19 08:42:03;;;;;;;1.58;1.48;;;15.20;99.90;;;;;;4939829;29;20012;-93
2023/07/19 08:44:29;;;;;;;6.88;2.00;;;15.20;99.90;;;;;;4939463;29;20051;-88
2023/07/19 08:46:56;;;;;;;2.00;1.90;;;15.40;99.90;;;;;;4950738;28;20026;-95
2023/07/19 08:49:21;;;;;;;2.22;1.88;;;15.50;99.90;;;;;;4939908;28;20051;-93
2023/07/19 08:51:47;;;;;;;2.03;1.83;;;15.60;99.90;;;;;;4939525;28;20008;-90
2023/07/19 08:54:13;;;;;;;2.50;1.98;;;15.80;99.90;;;;;;4918572;28;20032;-93
2023/07/19 08:56:40;;;;;;;2.53;2.03;;;16.10;99.90;;;;;;4946866;29;20060;-92
2023/07/19 08:59:07;;;;;;;2.60;2.13;;;16.20;99.90;;;;;;4935077;29;20063;-95
2023/07/19 09:01:33;;;;;;;2.47;1.77;;;16.40;99.90;;;;;;4933894;29;20024;-90
2023/07/19 09:03:59;;;;;;;2.47;1.65;;;16.50;99.90;;;;;;4950080;29;20003;-92
2023/07/19 09:06:28;;;;;;;1.95;1.67;;;16.60;99.90;;;;;;4956086;28;20088;-89
2023/07/19 09:08:55;;;;;;;4.15;1.80;;;16.70;99.90;;;;;;4941656;29;20092;-93
2023/07/19 09:11:22;;;;;;;1.90;1.42;;;16.70;99.90;;;;;;4954339;28;20092;-91
2023/07/19 09:13:56;;;;;;;4.40;2.22;;;16.70;99.90;;;;;;4944392;28;20019;-88
2023/07/19 09:16:29;;;;;;;1.40;1.30;;;16.80;99.90;;;;;;4945008;29;20028;-91
2023/07/19 09:18:57;;;;;;;5.13;1.50;;;16.90;99.90;;;;;;4943841;28;20040;-89
2023/07/19 09:21:39;;;;;;;1.83;0.80;;;17.00;99.90;;;;;;4940785;28;20016;-90
2023/07/19 09:24:09;;;;;;;1.38;1.27;;;17.10;99.90;;;;;;4937794;28;20081;-89
2023/07/19 09:26:53;;;;;;;0.70;0.70;;;17.30;99.90;;;;;;4933537;29;20011;-88
2023/07/19 09:29:23;;;;;;;1.10;0.70;;;17.40;99.90;;;;;;4947960;29;20047;-95
2023/07/19 09:31:58;;;;;;;0.70;0.70;;;17.50;99.90;;;;;;4930975;29;20042;-96
2023/07/19 09:34:33;;;;;;;1.80;0.68;;;17.60;99.90;;;;;;4924912;29;20036;-95
2023/07/19 09:37:00;;;;;;;0.65;0.60;;;17.80;99.90;;;;;;4934115;29;20139;-95
2023/07/19 09:39:26;;;;;;;4.18;1.08;;;17.90;99.90;;;;;;4922398;29;20036;-94
2023/07/19 09:41:53;;;;;;;0.70;0.52;;;18.00;99.90;;;;;;4928188;29;20030;-96
2023/07/19 09:44:19;;;;;;;0.43;0.40;;;18.10;99.90;;;;;;4940700;29;20099;-95
2023/07/19 09:46:45;;;;;;;0.60;0.30;;;18.10;99.90;;;;;;4922472;29;20035;-95
2023/07/19 09:49:14;;;;;;;0.47;0.40;;;18.10;99.90;;;;;;4922406;29;20048;-93
2023/07/19 09:51:41;;;;;;;1.65;0.35;;;18.20;99.90;;;;;;4923502;29;20034;-95
2023/07/19 09:54:12;;;;;;;0.40;0.30;;;18.20;99.90;;;;;;4924335;29;20034;-95
2023/07/19 09:56:38;;;;;;;0.30;0.30;;;18.10;99.90;;;;;;4932575;29;20035;-90
2023/07/19 09:59:16;;;;;;;0.22;0.22;;;18.10;99.90;;;;;;4956339;28;20035;-94
2023/07/19 10:01:43;;;;;;;0.95;0.40;;;18.00;99.90;;;;;;4935013;29;20040;-94
2023/07/19 10:04:26;;;;;;;0.40;0.40;;;17.90;99.90;;;;;;4907881;29;20032;-95
2023/07/19 10:07:21;;;;;;;0.30;0.30;;;17.90;99.90;;;;;;4924792;29;20040;-94
2023/07/19 10:09:51;;;;;;;0.30;0.30;;;17.90;99.90;;;;;;4924049;29;20036;-95
2023/07/19 10:12:16;;;;;;;0.55;0.35;;;17.80;99.90;;;;;;4931004;29;20032;-94
2023/07/19 10:14:55;;;;;;;0.20;0.13;;;17.80;99.90;;;;;;4927001;29;20042;-95
2023/07/19 10:17:22;;;;;;;0.55;0.20;;;17.80;99.90;;;;;;4937621;29;20055;-93
2023/07/19 10:19:58;;;;;;;1.40;0.30;;;17.80;99.90;;;;;;4941775;29;20035;-94
2023/07/19 10:22:55;;;;;;;0.93;0.38;;;17.80;99.90;;;;;;4926981;29;20040;-95
2023/07/19 10:25:22;;;;;;;0.60;0.20;;;17.90;99.90;;;;;;4912259;29;20031;-94
2023/07/19 10:28:11;;;;;;;1.17;0.30;;;18.10;99.90;;;;;;4945875;29;20043;-94
2023/07/19 10:30:55;;;;;;;0.17;0.10;;;18.20;99.90;;;;;;4912829;29;20060;-93
2023/07/19 10:33:26;;;;;;;1.00;0.20;;;18.50;99.90;;;;;;4909270;29;20059;-95
2023/07/19 10:35:57;;;;;;;0.63;0.40;;;18.80;99.90;;;;;;4936399;29;20027;-95
2023/07/19 10:38:30;;;;;;;0.20;0.20;;;19.20;99.90;;;;;;4935891;29;20111;-94
2023/07/19 10:41:03;;;;;;;2.47;0.10;;;19.50;99.90;;;;;;4937456;29;20494;-95
2023/07/19 10:43:31;;;;;;;0.20;0.15;;;19.90;99.90;;;;;;4919543;29;20030;-96
2023/07/19 10:46:03;;;;;;;0.45;0.20;;;20.10;99.90;;;;;;4925207;29;20115;-95
2023/07/19 10:48:33;;;;;;;0.30;0.20;;;20.10;99.90;;;;;;4928439;29;20044;-95
2023/07/19 10:51:00;;;;;;;1.92;0.50;;;20.00;99.90;;;;;;4931045;29;20032;-95
2023/07/19 10:53:27;;;;;;;0.28;0.28;;;19.90;99.90;;;;;;4912944;29;20070;-96
2023/07/19 10:55:57;;;;;;;0.30;0.30;;;19.70;99.90;;;;;;4911684;29;20024;-95
2023/07/19 10:58:26;;;;;;;1.15;0.40;;;19.70;99.90;;;;;;4911052;29;20032;-94
2023/07/19 11:00:53;;;;;;;0.47;0.40;;;19.70;99.90;;;;;;4926370;29;20039;-94
2023/07/19 11:03:22;;;;;;;0.68;0.30;;;19.70;99.90;;;;;;4942856;29;20028;-96
2023/07/19 11:05:50;;;;;;;0.45;0.40;;;19.70;99.90;;;;;;4924622;29;20035;-96
2023/07/19 11:08:27;;;;;;;0.70;0.20;;;19.70;99.90;;;;;;4941032;29;20083;-96
2023/07/19 11:10:55;;;;;;;6.03;0.70;;;19.70;99.90;;;;;;4922673;29;20382;-95
2023/07/19 11:13:24;;;;;;;0.80;0.60;;;19.80;99.90;;;;;;4930814;29;20193;-93
2023/07/19 11:15:54;;;;;;;3.35;0.55;;;19.70;99.90;;;;;;4923397;29;20111;-93
2023/07/19 11:18:36;;;;;;;1.05;0.70;;;19.60;99.90;;;;;;4942609;29;20032;-93
2023/07/19 11:21:02;;;;;;;1.02;0.47;;;19.50;99.90;;;;;;4921517;29;20044;-95
2023/07/19 11:23:29;;;;;;;1.38;0.45;;;19.50;99.90;;;;;;4920880;29;20051;-93
2023/07/19 11:26:06;;;;;;;0.40;0.38;;;19.50;99.90;;;;;;4914915;29;20032;-95
2023/07/19 11:28:44;;;;;;;2.03;0.77;;;19.50;99.90;;;;;;4948127;29;20059;-91
2023/07/19 11:31:25;;;;;;;4.63;1.48;;;19.80;99.90;;;;;;4948449;29;20063;-92
2023/07/19 11:33:59;;;;;;;0.98;0.47;;;20.00;99.90;;;;;;4921016;29;20678;-93
2023/07/19 11:36:25;;;;;;;0.75;0.40;;;20.30;99.90;;;;;;4918086;29;20036;-95
2023/07/19 11:38:51;;;;;;;1.52;0.40;;;20.50;99.90;;;;;;4904044;29;20489;-92
2023/07/19 11:41:20;;;;;;;0.40;0.40;;;20.80;99.90;;;;;;4926469;29;20047;-93
2023/07/19 11:43:54;;;;;;;1.83;0.30;;;20.90;99.20;;;;;;4928770;29;20521;-92
2023/07/19 11:46:22;;;;;;;0.40;0.40;;;20.90;98.40;;;;;;4926373;29;20040;-93
2023/07/19 11:48:49;;;;;;;2.13;0.40;;;20.80;97.40;;;;;;4921819;29;20119;-93
2023/07/19 11:54:47;;;;;;;3.17;0.40;;;20.60;96.90;;;;;;5004979;23;20117;-77
2023/07/19 11:57:12;;;;;;;1.00;0.50;;;20.40;96.90;;;;;;4942742;29;20568;-75
2023/07/19 11:59:39;;;;;;;2.08;0.30;;;20.30;97.30;;;;;;4922302;29;20035;-74
2023/07/19 12:02:04;;;;;;;0.98;0.40;;;20.20;96.80;;;;;;4934906;29;20086;-74
2023/07/19 12:04:31;;;;;;;0.50;0.50;;;20.20;96.60;;;;;;4934179;29;20371;-76
2023/07/19 12:06:56;;;;;;;0.50;0.43;;;20.20;96.40;;;;;;4953071;29;20538;-76
2023/07/19 12:09:25;;;;;;;0.30;0.30;;;20.40;96.00;;;;;;4927966;29;20114;-78
2023/07/19 12:11:50;;;;;;;0.60;0.40;;;20.50;95.60;;;;;;4934305;29;20024;-76
2023/07/19 12:14:16;;;;;;;0.60;0.38;;;20.70;95.40;;;;;;4933772;29;20459;-76
2023/07/19 12:16:42;;;;;;;2.33;0.40;;;20.70;94.90;;;;;;4916959;29;20034;-78
2023/07/19 12:19:11;;;;;;;0.60;0.47;;;20.60;94.30;;;;;;4930411;29;20024;-77
2023/07/19 12:21:37;;;;;;;0.80;0.35;;;20.60;94.30;;;;;;4933501;29;20028;-76
2023/07/19 12:24:03;;;;;;;0.20;0.20;;;20.70;94.40;;;;;;4934431;29;20474;-75
2023/07/19 12:26:29;;;;;;;2.80;0.40;;;21.00;94.40;;;;;;4934300;29;20023;-75
2023/07/19 12:28:55;;;;;;;0.70;0.35;;;21.20;93.20;;;;;;4916766;29;20218;-74
2023/07/19 12:31:21;;;;;;;1.20;0.40;;;21.10;92.60;;;;;;4933531;29;20419;-76
2023/07/19 12:33:47;;;;;;;1.25;0.70;;;21.20;92.50;;;;;;4918267;29;20181;-76
2023/07/19 12:36:13;;;;;;;0.30;0.30;;;21.20;91.90;;;;;;4934513;29;20511;-75
2023/07/19 12:38:39;;;;;;;1.00;0.40;;;21.40;92.30;;;;;;4935248;29;20024;-76
2023/07/19 12:41:04;;;;;;;1.88;0.30;;;21.80;92.10;;;;;;4917009;29;20033;-78
2023/07/19 12:43:30;;;;;;;1.70;0.30;;;22.20;91.00;;;;;;4917253;29;20490;-76
2023/07/19 12:45:56;;;;;;;0.70;0.43;;;22.50;89.00;;;;;;4917257;29;20035;-76
2023/07/19 12:48:22;;;;;;;0.95;0.20;;;22.70;87.10;;;;;;4933389;29;20329;-76
2023/07/19 12:50:47;;;;;;;0.32;0.32;;;23.00;85.50;;;;;;4933461;29;20032;-75